Time;durP1;ratioP1;P1;durP2;ratioP2;P2;SDS_P1;SDS_P2;PMS_P1;PMS_P2;Temp;Humidity;BMP_temperature;BMP_pressure;BME280_temperature;BME280_humidity;BME280_pressure;Samples;Min_cycle;Max_cycle;Signal;HPM_P1;HPM_P2
2022/06/29 00:00:07;;;;;;;;;;;;;;;;;;4969410;28;136606;-64
2022/06/29 00:02:33;;;;;;;;;;;;;;;;;;4969371;28;135637;-65
2022/06/29 00:04:59;;;;;;;;;;;;;;;;;;4985319;28;106051;-65
2022/06/29 00:07:26;;;;;;;;;;;;;;;;;;4970426;28;129752;-64
2022/06/29 00:09:52;;;;;;;;;;;;;;;;;;4969378;28;117297;-65
2022/06/29 00:12:18;;;;;;;;;;;;;;;;;;4970174;28;122114;-64
2022/06/29 00:14:45;;;;;;;;;;;;;;;;;;4965757;28;136495;-65
2022/06/29 00:17:16;;;;;;;;;;;;;;;;;;4971331;28;137369;-64
2022/06/29 00:19:42;;;;;;;;;;;;;;;;;;4969005;28;137291;-65
2022/06/29 00:22:09;;;;;;;;;;;;;;;;;;4969985;28;113199;-64
2022/06/29 00:24:35;;;;;;;;;;;;;;;;;;4964325;28;123988;-64
2022/06/29 00:27:01;;;;;;;;;;;;;;;;;;4982052;28;132892;-64
2022/06/29 00:29:27;;;;;;;;;;;;;;;;;;4967189;28;135678;-65
2022/06/29 00:31:54;;;;;;;;;;;;;;;;;;4969349;28;115738;-64
2022/06/29 00:34:20;;;;;;;;;;;;;;;;;;4970582;28;105877;-64
2022/06/29 00:36:46;;;;;;;;;;;;;;;;;;4968667;28;137037;-64
2022/06/29 00:39:13;;;;;;;;;;;;;;;;;;4971501;28;123368;-64
2022/06/29 00:41:39;;;;;;;;;;;;;;;;;;4967605;28;129943;-64
2022/06/29 00:44:07;;;;;;;;;;;;;;;;;;4978282;28;122571;-64
2022/06/29 00:46:34;;;;;;;;;;;;;;;;;;4967261;28;138120;-65
2022/06/29 00:49:00;;;;;;;;;;;;;;;;;;4968894;28;136941;-64
2022/06/29 00:51:27;;;;;;;;;;;;;;;;;;4970586;28;106233;-64
2022/06/29 00:53:53;;;;;;;;;;;;;;;;;;4968670;28;134938;-64
2022/06/29 00:56:19;;;;;;;;;;;;;;;;;;4968585;28;137836;-64
2022/06/29 00:58:45;;;;;;;;;;;;;;;;;;4970899;28;118281;-64
2022/06/29 01:01:12;;;;;;;;;;;;;;;;;;4967919;28;124258;-64
2022/06/29 01:03:38;;;;;;;;;;;;;;;;;;4968676;28;106033;-64
2022/06/29 01:06:05;;;;;;;;;;;;;;;;;;4904930;28;1840278;-64
2022/06/29 01:11:22;;;;;;;;;;;;;;;;;;4940984;28;107448;-64
2022/06/29 01:13:48;;;;;;;;;;;;;;;;;;4950232;28;107081;-64
2022/06/29 01:16:14;;;;;;;;;;;;;;;;;;4947331;28;137114;-64
2022/06/29 01:18:41;;;;;;;;;;;;;;;;;;4950117;28;123043;-64
2022/06/29 01:21:07;;;;;;;;;;;;;;;;;;4954828;28;106389;-64
2022/06/29 01:23:33;;;;;;;;;;;;;;;;;;4948053;28;120968;-64
2022/06/29 01:26:00;;;;;;;;;;;;;;;;;;4948674;28;136644;-65
2022/06/29 01:28:26;;;;;;;;;;;;;;;;;;4949810;28;114379;-65
2022/06/29 01:30:52;;;;;;;;;;;;;;;;;;4949339;28;124262;-64
2022/06/29 01:33:19;;;;;;;;;;;;;;;;;;4951221;28;136406;-64
2022/06/29 01:35:46;;;;;;;;;;;;;;;;;;4945472;28;106667;-64
2022/06/29 01:38:12;;;;;;;;;;;;;;;;;;4948426;28;121941;-64
2022/06/29 01:40:38;;;;;;;;;;;;;;;;;;4946081;28;136790;-64
2022/06/29 01:43:05;;;;;;;;;;;;;;;;;;4950895;28;138167;-65
2022/06/29 01:45:31;;;;;;;;;;;;;;;;;;4944061;28;123088;-65
2022/06/29 01:47:57;;;;;;;;;;;;;;;;;;4947438;28;136503;-64
2022/06/29 01:50:23;;;;;;;;;;;;;;;;;;4947320;28;123182;-64
2022/06/29 01:52:50;;;;;;;;;;;;;;;;;;4946538;28;135715;-64
2022/06/29 01:55:17;;;;;;;;;;;;;;;;;;4948115;28;136956;-64
2022/06/29 01:57:43;;;;;;;;;;;;;;;;;;4949730;28;122105;-64
2022/06/29 02:00:09;;;;;;;;;;;;;;;;;;4950154;28;105925;-65
2022/06/29 02:02:35;;;;;;;;;;;;;;;;;;4949172;28;134816;-65
2022/06/29 02:05:02;;;;;;;;;;;;;;;;;;4952789;28;123220;-65
2022/06/29 02:07:28;;;;;;;;;;;;;;;;;;4948087;28;120941;-64
2022/06/29 02:09:54;;;;;;;;;;;;;;;;;;4948716;28;116523;-64
2022/06/29 02:12:21;;;;;;;;;;;;;;;;;;4950294;28;124893;-66
2022/06/29 02:14:47;;;;;;;;;;;;;;;;;;4946238;28;136679;-65
2022/06/29 02:17:13;;;;;;;;;;;;;;;;;;4935410;28;122251;-65
2022/06/29 02:19:40;;;;;;;;;;;;;;;;;;4943978;28;106741;-66
2022/06/29 02:22:06;;;;;;;;;;;;;;;;;;4944026;28;136208;-65
2022/06/29 02:24:32;;;;;;;;;;;;;;;;;;4948897;28;117931;-66
2022/06/29 02:26:59;;;;;;;;;;;;;;;;;;4950004;28;135285;-65
2022/06/29 02:29:25;;;;;;;;;;;;;;;;;;4948781;28;123591;-66
2022/06/29 02:34:49;;;;;;;;;;;;;;;;;;4947534;28;135326;-65
2022/06/29 02:37:15;;;;;;;;;;;;;;;;;;4949159;28;120979;-65
2022/06/29 02:39:45;;;;;;;;;;;;;;;;;;4949520;28;113015;-65
2022/06/29 02:42:11;;;;;;;;;;;;;;;;;;4947086;28;126315;-65
2022/06/29 02:44:37;;;;;;;;;;;;;;;;;;4946060;28;126404;-65
2022/06/29 02:47:03;;;;;;;;;;;;;;;;;;4949208;28;135250;-65
2022/06/29 02:49:30;;;;;;;;;;;;;;;;;;4943740;28;106984;-66
2022/06/29 02:51:56;;;;;;;;;;;;;;;;;;4948485;28;136508;-66
2022/06/29 02:54:22;;;;;;;;;;;;;;;;;;4949073;28;137975;-66
2022/06/29 02:56:48;;;;;;;;;;;;;;;;;;4949857;28;106486;-65
2022/06/29 02:59:15;;;;;;;;;;;;;;;;;;4947834;28;137468;-65
2022/06/29 03:01:41;;;;;;;;;;;;;;;;;;4948579;28;118801;-65
2022/06/29 03:04:07;;;;;;;;;;;;;;;;;;4946866;28;106109;-65
2022/06/29 03:06:34;;;;;;;;;;;;;;;;;;4947803;28;136157;-66
2022/06/29 03:09:00;;;;;;;;;;;;;;;;;;4951201;28;136464;-65
2022/06/29 03:11:26;;;;;;;;;;;;;;;;;;4942357;28;106034;-65
2022/06/29 03:13:52;;;;;;;;;;;;;;;;;;4938350;28;136451;-66
2022/06/29 03:16:19;;;;;;;;;;;;;;;;;;4949452;28;122040;-65
2022/06/29 03:18:45;;;;;;;;;;;;;;;;;;4951997;28;126868;-65
2022/06/29 03:21:11;;;;;;;;;;;;;;;;;;4952000;28;137787;-65
2022/06/29 03:23:38;;;;;;;;;;;;;;;;;;4950419;28;122792;-65
2022/06/29 03:26:04;;;;;;;;;;;;;;;;;;4951801;28;136960;-65
2022/06/29 03:28:30;;;;;;;;;;;;;;;;;;4951753;28;137102;-65
2022/06/29 03:30:56;;;;;;;;;;;;;;;;;;4953222;28;121775;-65
2022/06/29 03:33:23;;;;;;;;;;;;;;;;;;4950687;28;135795;-66
2022/06/29 03:35:49;;;;;;;;;;;;;;;;;;4951820;28;123199;-65
2022/06/29 03:38:15;;;;;;;;;;;;;;;;;;4950708;28;136448;-65
2022/06/29 03:40:41;;;;;;;;;;;;;;;;;;4949786;28;119102;-65
2022/06/29 03:43:08;;;;;;;;;;;;;;;;;;4949420;28;105695;-65
2022/06/29 03:45:34;;;;;;;;;;;;;;;;;;4936941;28;136138;-65
2022/06/29 03:48:00;;;;;;;;;;;;;;;;;;4948814;28;137955;-65
2022/06/29 03:50:27;;;;;;;;;;;;;;;;;;4950829;28;121236;-65
2022/06/29 03:52:53;;;;;;;;;;;;;;;;;;4955721;28;125102;-65
2022/06/29 03:55:19;;;;;;;;;;;;;;;;;;4939486;28;120256;-65
2022/06/29 03:57:46;;;;;;;;;;;;;;;;;;4951858;28;138114;-66
2022/06/29 04:00:12;;;;;;;;;;;;;;;;;;4949789;28;128993;-65
2022/06/29 04:02:38;;;;;;;;;;;;;;;;;;4951715;28;105748;-65
2022/06/29 04:05:05;;;;;;;;;;;;;;;;;;4939872;28;136565;-65
2022/06/29 04:07:31;;;;;;;;;;;;;;;;;;4948184;28;137204;-66
2022/06/29 04:10:00;;;;;;;;;;;;;;;;;;4951128;28;123107;-65
2022/06/29 04:12:26;;;;;;;;;;;;;;;;;;4951074;28;137466;-65
2022/06/29 04:14:52;;;;;;;;;;;;;;;;;;4953770;28;136982;-66
2022/06/29 04:17:19;;;;;;;;;;;;;;;;;;4943491;28;135251;-65
2022/06/29 04:19:45;;;;;;;;;;;;;;;;;;4950113;28;138046;-66
2022/06/29 04:22:11;;;;;;;;;;;;;;;;;;4950963;28;122308;-65
2022/06/29 04:24:38;;;;;;;;;;;;;;;;;;4950329;28;137273;-66
2022/06/29 04:27:04;;;;;;;;;;;;;;;;;;4945085;28;137930;-65
2022/06/29 04:29:30;;;;;;;;;;;;;;;;;;4950312;28;121655;-66
2022/06/29 04:31:56;;;;;;;;;;;;;;;;;;4948473;28;136585;-65
2022/06/29 04:34:23;;;;;;;;;;;;;;;;;;4949762;28;122279;-66
2022/06/29 04:36:51;;;;;;;;;;;;;;;;;;4954318;28;123218;-65
2022/06/29 04:39:18;;;;;;;;;;;;;;;;;;4950582;28;117165;-65
2022/06/29 04:41:44;;;;;;;;;;;;;;;;;;4947065;28;121998;-65
2022/06/29 04:44:10;;;;;;;;;;;;;;;;;;4949258;28;135750;-65
2022/06/29 04:46:36;;;;;;;;;;;;;;;;;;4945291;28;137515;-65
2022/06/29 04:49:03;;;;;;;;;;;;;;;;;;4951482;28;107708;-65
2022/06/29 04:51:29;;;;;;;;;;;;;;;;;;4950896;28;129110;-65
2022/06/29 04:53:56;;;;;;;;;;;;;;;;;;4950836;28;133294;-65
2022/06/29 04:56:22;;;;;;;;;;;;;;;;;;4952491;28;109241;-66
2022/06/29 04:58:50;;;;;;;;;;;;;;;;;;4949043;28;135981;-65
2022/06/29 05:01:17;;;;;;;;;;;;;;;;;;4952540;28;106244;-65
2022/06/29 05:03:43;;;;;;;;;;;;;;;;;;4936843;28;126971;-65
2022/06/29 05:06:09;;;;;;;;;;;;;;;;;;4945981;28;136893;-65
2022/06/29 05:08:36;;;;;;;;;;;;;;;;;;4948533;28;123336;-66
2022/06/29 05:11:02;;;;;;;;;;;;;;;;;;4939025;28;128158;-65
2022/06/29 05:13:28;;;;;;;;;;;;;;;;;;4944178;28;129309;-66
2022/06/29 05:15:55;;;;;;;;;;;;;;;;;;4952016;28;105737;-67
2022/06/29 05:18:21;;;;;;;;;;;;;;;;;;4953632;28;132349;-66
2022/06/29 05:20:54;;;;;;;;;;;;;;;;;;4948693;28;124270;-65
2022/06/29 05:23:21;;;;;;;;;;;;;;;;;;4949475;28;130421;-66
2022/06/29 05:25:47;;;;;;;;;;;;;;;;;;4950240;28;129445;-65
2022/06/29 05:28:13;;;;;;;;;;;;;;;;;;4951541;28;111631;-65
2022/06/29 05:30:40;;;;;;;;;;;;;;;;;;4949314;28;137091;-67
2022/06/29 05:33:06;;;;;;;;;;;;;;;;;;4946041;28;116237;-66
2022/06/29 05:35:33;;;;;;;;;;;;;;;;;;4948367;28;124467;-67
2022/06/29 05:38:00;;;;;;;;;;;;;;;;;;4941858;28;137614;-66
2022/06/29 05:40:26;;;;;;;;;;;;;;;;;;4952688;28;133331;-66
2022/06/29 05:42:52;;;;;;;;;;;;;;;;;;4949361;28;119500;-67
2022/06/29 05:45:19;;;;;;;;;;;;;;;;;;4945590;28;132790;-66
2022/06/29 05:47:45;;;;;;;;;;;;;;;;;;4949771;28;123935;-64
2022/06/29 05:50:13;;;;;;;;;;;;;;;;;;4946367;28;131501;-66
2022/06/29 05:52:39;;;;;;;;;;;;;;;;;;4937775;28;133677;-64
2022/06/29 05:55:06;;;;;;;;;;;;;;;;;;4945216;28;123863;-66
2022/06/29 05:57:33;;;;;;;;;;;;;;;;;;4941203;28;133694;-65
2022/06/29 06:00:01;;;;;;;;;;;;;;;;;;4948520;28;131570;-65
2022/06/29 06:02:37;;;;;;;;;;;;;;;;;;4954354;28;106270;-66
2022/06/29 06:05:03;;;;;;;;;;;;;;;;;;4945819;28;130439;-66
2022/06/29 06:07:29;;;;;;;;;;;;;;;;;;4950483;28;106560;-66
2022/06/29 06:09:57;;;;;;;;;;;;;;;;;;4949311;28;136752;-65
2022/06/29 06:12:23;;;;;;;;;;;;;;;;;;4948865;28;136310;-66
2022/06/29 06:14:49;;;;;;;;;;;;;;;;;;4945995;28;123094;-66
2022/06/29 06:17:16;;;;;;;;;;;;;;;;;;4950050;28;126606;-66
2022/06/29 06:19:42;;;;;;;;;;;;;;;;;;4944486;28;137766;-66
2022/06/29 06:22:09;;;;;;;;;;;;;;;;;;4948955;28;119995;-65
2022/06/29 06:24:35;;;;;;;;;;;;;;;;;;4951082;28;107093;-66
2022/06/29 06:27:01;;;;;;;;;;;;;;;;;;4948705;28;121727;-66
2022/06/29 06:29:27;;;;;;;;;;;;;;;;;;4948052;28;136398;-66
2022/06/29 06:31:54;;;;;;;;;;;;;;;;;;4948894;28;127007;-66
2022/06/29 06:34:20;;;;;;;;;;;;;;;;;;4944258;28;123117;-65
2022/06/29 06:36:49;;;;;;;;;;;;;;;;;;4950080;28;109659;-65
2022/06/29 06:39:15;;;;;;;;;;;;;;;;;;4948310;28;138042;-66
2022/06/29 06:41:41;;;;;;;;;;;;;;;;;;4948449;28;115117;-66
2022/06/29 06:44:08;;;;;;;;;;;;;;;;;;4946097;28;135631;-65
2022/06/29 06:46:34;;;;;;;;;;;;;;;;;;4951062;28;136454;-65
2022/06/29 06:49:00;;;;;;;;;;;;;;;;;;4950240;28;106596;-65
2022/06/29 06:51:27;;;;;;;;;;;;;;;;;;4945629;28;135693;-66
2022/06/29 06:53:53;;;;;;;;;;;;;;;;;;4929405;28;122040;-66
2022/06/29 06:56:19;;;;;;;;;;;;;;;;;;4949472;28;133305;-65
2022/06/29 06:58:46;;;;;;;;;;;;;;;;;;4946541;28;107903;-66
2022/06/29 07:01:19;;;;;;;;;;;;;;;;;;4941007;28;106583;-66
2022/06/29 07:03:45;;;;;;;;;;;;;;;;;;4949236;28;135963;-66
2022/06/29 07:06:11;;;;;;;;;;;;;;;;;;4952209;28;135808;-64
2022/06/29 07:08:38;;;;;;;;;;;;;;;;;;4948828;28;106476;-66
2022/06/29 07:11:04;;;;;;;;;;;;;;;;;;4946938;28;137160;-65
2022/06/29 07:13:33;;;;;;;;;;;;;;;;;;4936284;28;125254;-68
2022/06/29 07:16:02;;;;;;;;;;;;;;;;;;4948007;28;107036;-65
2022/06/29 07:18:29;;;;;;;;;;;;;;;;;;4945603;28;137200;-65
2022/06/29 07:20:55;;;;;;;;;;;;;;;;;;4948821;28;106947;-65
2022/06/29 07:23:21;;;;;;;;;;;;;;;;;;4947598;28;111532;-66
2022/06/29 07:25:48;;;;;;;;;;;;;;;;;;4948916;28;115350;-65
2022/06/29 07:28:14;;;;;;;;;;;;;;;;;;4948357;28;118750;-65
2022/06/29 07:30:40;;;;;;;;;;;;;;;;;;4947366;28;138192;-64
2022/06/29 07:33:09;;;;;;;;;;;;;;;;;;4949043;28;107084;-66
2022/06/29 07:35:35;;;;;;;;;;;;;;;;;;4946648;28;135410;-67
2022/06/29 07:38:01;;;;;;;;;;;;;;;;;;4932391;28;114524;-64
2022/06/29 07:40:27;;;;;;;;;;;;;;;;;;4948493;28;106437;-66
2022/06/29 07:42:54;;;;;;;;;;;;;;;;;;4946370;28;135563;-65
2022/06/29 07:45:20;;;;;;;;;;;;;;;;;;4945468;28;136735;-65
2022/06/29 07:47:51;;;;;;;;;;;;;;;;;;4948151;28;107687;-65
2022/06/29 07:50:17;;;;;;;;;;;;;;;;;;4951093;28;135784;-65
2022/06/29 07:52:44;;;;;;;;;;;;;;;;;;4949093;28;106371;-66
2022/06/29 07:55:10;;;;;;;;;;;;;;;;;;4944297;28;107420;-66
2022/06/29 07:57:36;;;;;;;;;;;;;;;;;;4946577;28;136688;-65
2022/06/29 08:00:03;;;;;;;;;;;;;;;;;;4945026;28;123484;-67
2022/06/29 08:02:37;;;;;;;;;;;;;;;;;;4948573;28;106690;-65
2022/06/29 08:05:03;;;;;;;;;;;;;;;;;;4940496;28;137456;-65
2022/06/29 08:07:31;;;;;;;;;;;;;;;;;;4950419;28;123648;-65
2022/06/29 08:09:57;;;;;;;;;;;;;;;;;;4950134;28;137157;-65
2022/06/29 08:12:24;;;;;;;;;;;;;;;;;;4953425;28;137847;-64
2022/06/29 08:14:50;;;;;;;;;;;;;;;;;;4939170;28;136522;-64
2022/06/29 08:17:16;;;;;;;;;;;;;;;;;;4947030;28;135686;-65
2022/06/29 08:19:43;;;;;;;;;;;;;;;;;;4946317;28;110516;-65
2022/06/29 08:22:09;;;;;;;;;;;;;;;;;;4951110;28;134186;-65
2022/06/29 08:24:35;;;;;;;;;;;;;;;;;;4947884;28;136853;-64
2022/06/29 08:27:02;;;;;;;;;;;;;;;;;;4949085;28;122402;-65
2022/06/29 08:29:48;;;;;;;;;;;;;;;;;;4948011;28;107921;-65
2022/06/29 08:32:14;;;;;;;;;;;;;;;;;;4950420;28;138364;-64
2022/06/29 08:34:40;;;;;;;;;;;;;;;;;;4951375;28;122685;-65
2022/06/29 08:37:07;;;;;;;;;;;;;;;;;;4947353;28;119603;-65
2022/06/29 08:39:33;;;;;;;;;;;;;;;;;;4949904;28;124076;-65
2022/06/29 08:41:59;;;;;;;;;;;;;;;;;;4947321;28;137116;-66
2022/06/29 08:44:26;;;;;;;;;;;;;;;;;;4946689;28;121894;-65
2022/06/29 08:46:52;;;;;;;;;;;;;;;;;;4946927;28;123505;-64
2022/06/29 08:49:18;;;;;;;;;;;;;;;;;;4949313;28;117427;-64
2022/06/29 08:51:45;;;;;;;;;;;;;;;;;;4947603;28;130256;-63
2022/06/29 08:54:11;;;;;;;;;;;;;;;;;;4942820;28;117485;-63
2022/06/29 08:56:38;;;;;;;;;;;;;;;;;;4948774;28;113505;-64
2022/06/29 08:59:04;;;;;;;;;;;;;;;;;;4949113;28;115638;-64
2022/06/29 09:01:30;;;;;;;;;;;;;;;;;;4942068;28;130242;-65
2022/06/29 09:03:57;;;;;;;;;;;;;;;;;;4946567;28;136150;-64
2022/06/29 09:06:23;;;;;;;;;;;;;;;;;;4948710;28;106781;-64
2022/06/29 09:08:50;;;;;;;;;;;;;;;;;;4949342;28;137203;-64
2022/06/29 09:11:16;;;;;;;;;;;;;;;;;;4945790;28;118208;-63
2022/06/29 09:13:43;;;;;;;;;;;;;;;;;;4949621;28;108981;-64
2022/06/29 09:16:09;;;;;;;;;;;;;;;;;;4951922;28;136012;-63
2022/06/29 09:18:36;;;;;;;;;;;;;;;;;;4948592;28;124801;-64
2022/06/29 09:21:02;;;;;;;;;;;;;;;;;;4948954;28;138840;-64
2022/06/29 09:23:28;;;;;;;;;;;;;;;;;;4948331;28;137791;-64
2022/06/29 09:25:54;;;;;;;;;;;;;;;;;;4947515;28;112106;-64
2022/06/29 09:28:21;;;;;;;;;;;;;;;;;;4949392;28;126077;-64
2022/06/29 09:30:47;;;;;;;;;;;;;;;;;;4946907;28;128405;-64
2022/06/29 09:33:13;;;;;;;;;;;;;;;;;;4943219;28;122317;-64
2022/06/29 09:35:40;;;;;;;;;;;;;;;;;;4948269;28;133424;-64
2022/06/29 09:38:06;;;;;;;;;;;;;;;;;;4950633;28;138683;-64
2022/06/29 09:40:32;;;;;;;;;;;;;;;;;;4942891;28;136281;-63
2022/06/29 09:42:59;;;;;;;;;;;;;;;;;;4943127;28;136755;-65
2022/06/29 09:45:25;;;;;;;;;;;;;;;;;;4943695;28;113829;-65
2022/06/29 09:47:51;;;;;;;;;;;;;;;;;;4947643;28;119219;-65
2022/06/29 09:50:17;;;;;;;;;;;;;;;;;;4948153;28;136990;-65
2022/06/29 09:52:45;;;;;;;;;;;;;;;;;;4947417;28;109242;-64
2022/06/29 09:55:12;;;;;;;;;;;;;;;;;;4948443;28;135220;-65
2022/06/29 09:57:38;;;;;;;;;;;;;;;;;;4947518;28;132309;-64
2022/06/29 10:02:51;;;;;;;;;;;;;;;;;;4943580;28;127165;-64
2022/06/29 10:05:18;;;;;;;;;;;;;;;;;;4941837;28;108331;-65
2022/06/29 10:07:44;;;;;;;;;;;;;;;;;;4944139;28;137783;-63
2022/06/29 10:10:10;;;;;;;;;;;;;;;;;;4945726;28;118464;-63
2022/06/29 10:15:22;;;;;;;;;;;;;;;;;;4947661;28;137988;-63
2022/06/29 10:17:49;;;;;;;;;;;;;;;;;;4927430;28;137453;-62
2022/06/29 10:20:15;;;;;;;;;;;;;;;;;;4947403;28;123345;-63
2022/06/29 10:22:41;;;;;;;;;;;;;;;;;;4949685;28;136909;-65
2022/06/29 10:25:09;;;;;;;;;;;;;;;;;;4948797;28;107796;-64
2022/06/29 10:27:35;;;;;;;;;;;;;;;;;;4946007;28;136071;-64
2022/06/29 10:30:01;;;;;;;;;;;;;;;;;;4944577;28;125838;-67
2022/06/29 10:32:28;;;;;;;;;;;;;;;;;;4926113;28;123735;-64
2022/06/29 10:35:06;;;;;;;;;;;;;;;;;;4946148;28;137496;-66
2022/06/29 10:37:33;;;;;;;;;;;;;;;;;;4942658;28;136462;-64
2022/06/29 10:40:04;;;;;;;;;;;;;;;;;;4948117;28;108141;-63
2022/06/29 10:45:18;;;;;;;;;;;;;;;;;;4941191;28;122084;-62
2022/06/29 10:47:45;;;;;;;;;;;;;;;;;;4944848;28;128552;-63
2022/06/29 10:50:11;;;;;;;;;;;;;;;;;;4943590;28;123730;-64
2022/06/29 10:52:37;;;;;;;;;;;;;;;;;;4945748;28;122966;-62
2022/06/29 10:55:04;;;;;;;;;;;;;;;;;;4947559;28;121807;-62
2022/06/29 10:57:30;;;;;;;;;;;;;;;;;;4946907;28;113171;-65
2022/06/29 10:59:56;;;;;;;;;;;;;;;;;;4944362;28;108018;-64
2022/06/29 11:02:23;;;;;;;;;;;;;;;;;;4944575;28;112872;-64
2022/06/29 11:04:49;;;;;;;;;;;;;;;;;;4947343;28;118493;-63
2022/06/29 11:12:46;;;;;;;;;;;;;;;;;;4945643;28;125079;-62
2022/06/29 11:15:54;;;;;;;;;;;;;;;;;;4946870;28;129260;-63
2022/06/29 11:18:02;;;;;;;;;;;;;;;;;;4941620;28;139257;-63
2022/06/29 11:20:30;;;;;;;;;;;;;;;;;;4945457;28;126588;-63
2022/06/29 11:22:56;;;;;;;;;;;;;;;;;;4946419;28;109034;-64
2022/06/29 11:25:23;;;;;;;;;;;;;;;;;;4944125;28;139496;-63
2022/06/29 11:27:49;;;;;;;;;;;;;;;;;;4949658;28;123591;-63
2022/06/29 11:30:15;;;;;;;;;;;;;;;;;;4943182;28;113453;-63
2022/06/29 11:32:42;;;;;;;;;;;;;;;;;;4941757;28;108448;-63
2022/06/29 11:35:08;;;;;;;;;;;;;;;;;;4949551;28;136280;-63
2022/06/29 11:37:37;;;;;;;;;;;;;;;;;;4945783;28;119849;-63
2022/06/29 11:40:03;;;;;;;;;;;;;;;;;;4948199;28;124515;-63
2022/06/29 11:45:15;;;;;;;;;;;;;;;;;;4944411;28;136566;-63
2022/06/29 11:47:41;;;;;;;;;;;;;;;;;;4947086;28;118165;-63
2022/06/29 11:50:07;;;;;;;;;;;;;;;;;;4950423;28;109045;-63
2022/06/29 11:52:34;;;;;;;;;;;;;;;;;;4939649;28;121725;-63
2022/06/29 11:55:01;;;;;;;;;;;;;;;;;;4949301;28;116117;-62
2022/06/29 11:57:27;;;;;;;;;;;;;;;;;;4937183;28;132623;-65
2022/06/29 11:59:54;;;;;;;;;;;;;;;;;;4944404;28;125373;-63
2022/06/29 12:02:20;;;;;;;;;;;;;;;;;;4946872;28;131031;-64
2022/06/29 12:04:46;;;;;;;;;;;;;;;;;;4948244;28;139360;-63
2022/06/29 12:07:13;;;;;;;;;;;;;;;;;;4946745;28;113635;-63
2022/06/29 12:09:39;;;;;;;;;;;;;;;;;;4948295;28;133368;-63
2022/06/29 12:12:06;;;;;;;;;;;;;;;;;;4952110;28;130581;-62
2022/06/29 12:14:32;;;;;;;;;;;;;;;;;;4947458;28;123899;-64
2022/06/29 12:16:58;;;;;;;;;;;;;;;;;;4947232;28;132125;-63
2022/06/29 12:19:25;;;;;;;;;;;;;;;;;;4941121;28;117792;-63
2022/06/29 12:21:51;;;;;;;;;;;;;;;;;;4942409;28;137156;-63
2022/06/29 12:24:17;;;;;;;;;;;;;;;;;;4944177;28;135673;-62
2022/06/29 12:26:44;;;;;;;;;;;;;;;;;;4948675;28;123770;-62
2022/06/29 12:29:13;;;;;;;;;;;;;;;;;;4945581;28;138525;-63
2022/06/29 12:31:40;;;;;;;;;;;;;;;;;;4945802;28;136192;-62
2022/06/29 12:34:07;;;;;;;;;;;;;;;;;;4951187;28;124131;-63
2022/06/29 12:36:52;;;;;;;;;;;;;;;;;;4945143;28;135120;-63
2022/06/29 12:39:19;;;;;;;;;;;;;;;;;;4949362;28;112098;-63
2022/06/29 12:41:45;;;;;;;;;;;;;;;;;;4947712;28;125525;-64
2022/06/29 12:44:11;;;;;;;;;;;;;;;;;;4947182;28;139792;-63
2022/06/29 12:46:39;;;;;;;;;;;;;;;;;;4944193;28;124469;-63
2022/06/29 12:49:05;;;;;;;;;;;;;;;;;;4941135;28;138022;-62
2022/06/29 12:51:31;;;;;;;;;;;;;;;;;;4943290;28;137943;-63
2022/06/29 12:53:58;;;;;;;;;;;;;;;;;;4947026;28;117605;-63
2022/06/29 12:56:24;;;;;;;;;;;;;;;;;;4948050;28;120599;-62
2022/06/29 12:58:50;;;;;;;;;;;;;;;;;;4942221;28;123584;-64
2022/06/29 13:01:17;;;;;;;;;;;;;;;;;;4947612;28;122249;-63
2022/06/29 13:03:45;;;;;;;;;;;;;;;;;;4943282;28;136712;-63
2022/06/29 13:06:11;;;;;;;;;;;;;;;;;;4938621;28;125131;-63
2022/06/29 13:08:38;;;;;;;;;;;;;;;;;;4945149;28;135285;-64
2022/06/29 13:11:05;;;;;;;;;;;;;;;;;;4937785;28;135956;-63
2022/06/29 13:13:31;;;;;;;;;;;;;;;;;;4947126;28;116774;-64
2022/06/29 13:15:57;;;;;;;;;;;;;;;;;;4946232;28;139709;-63
2022/06/29 13:18:24;;;;;;;;;;;;;;;;;;4950107;28;109111;-63
2022/06/29 13:20:50;;;;;;;;;;;;;;;;;;4940896;28;116082;-64
2022/06/29 13:23:17;;;;;;;;;;;;;;;;;;4944520;28;108668;-63
2022/06/29 13:25:43;;;;;;;;;;;;;;;;;;4948048;28;124324;-63
2022/06/29 13:28:10;;;;;;;;;;;;;;;;;;4945750;28;135220;-63
2022/06/29 13:30:36;;;;;;;;;;;;;;;;;;4942113;28;139304;-65
2022/06/29 13:33:03;;;;;;;;;;;;;;;;;;4946608;28;121700;-64
2022/06/29 13:35:31;;;;;;;;;;;;;;;;;;4947628;28;134284;-65
2022/06/29 13:37:58;;;;;;;;;;;;;;;;;;4951109;28;138846;-64
2022/06/29 13:40:24;;;;;;;;;;;;;;;;;;4947883;28;130410;-64
2022/06/29 13:42:51;;;;;;;;;;;;;;;;;;4940130;28;138018;-65
2022/06/29 13:45:31;;;;;;;;;;;;;;;;;;4939635;28;122563;-65
2022/06/29 13:47:57;;;;;;;;;;;;;;;;;;4936828;28;127659;-63
2022/06/29 13:50:23;;;;;;;;;;;;;;;;;;4942951;28;123639;-64
2022/06/29 13:52:50;;;;;;;;;;;;;;;;;;4947837;28;112959;-63
2022/06/29 13:55:16;;;;;;;;;;;;;;;;;;4929962;28;140046;-64
2022/06/29 13:57:43;;;;;;;;;;;;;;;;;;4939022;28;138622;-63
2022/06/29 14:00:10;;;;;;;;;;;;;;;;;;4949530;28;112543;-63
2022/06/29 14:02:36;;;;;;;;;;;;;;;;;;4947041;28;132264;-64
2022/06/29 14:05:03;;;;;;;;;;;;;;;;;;4946424;28;120553;-63
2022/06/29 14:07:30;;;;;;;;;;;;;;;;;;4946623;28;137776;-64
2022/06/29 14:10:16;;;;;;;;;;;;;;;;;;4938645;28;110563;-63
2022/06/29 14:12:44;;;;;;;;;;;;;;;;;;4940880;28;125694;-63
2022/06/29 14:15:10;;;;;;;;;;;;;;;;;;4943418;28;138500;-63
2022/06/29 14:17:37;;;;;;;;;;;;;;;;;;4945920;28;137058;-63
2022/06/29 14:20:03;;;;;;;;;;;;;;;;;;4945370;28;123409;-63
2022/06/29 14:22:29;;;;;;;;;;;;;;;;;;4948895;28;141778;-63
2022/06/29 14:24:55;;;;;;;;;;;;;;;;;;4944843;28;125088;-63
2022/06/29 14:27:22;;;;;;;;;;;;;;;;;;4942859;28;135568;-63
2022/06/29 14:29:49;;;;;;;;;;;;;;;;;;4942717;28;137507;-63
2022/06/29 14:32:15;;;;;;;;;;;;;;;;;;4928161;28;109159;-63
2022/06/29 14:34:52;;;;;;;;;;;;;;;;;;4942821;28;138798;-63
2022/06/29 14:37:18;;;;;;;;;;;;;;;;;;4946445;28;123362;-62
2022/06/29 14:39:45;;;;;;;;;;;;;;;;;;4943847;28;125284;-62
2022/06/29 14:42:11;;;;;;;;;;;;;;;;;;4947049;28;108943;-64
2022/06/29 14:44:37;;;;;;;;;;;;;;;;;;4942530;28;137922;-62
2022/06/29 14:47:03;;;;;;;;;;;;;;;;;;4946353;28;138586;-62
2022/06/29 14:49:30;;;;;;;;;;;;;;;;;;4944973;28;139097;-62
2022/06/29 14:51:56;;;;;;;;;;;;;;;;;;4946906;28;108928;-67
2022/06/29 14:54:22;;;;;;;;;;;;;;;;;;4946215;28;138801;-65
2022/06/29 14:56:49;;;;;;;;;;;;;;;;;;4939708;28;133168;-63
2022/06/29 14:59:34;;;;;;;;;;;;;;;;;;4941498;28;108731;-63
2022/06/29 15:02:01;;;;;;;;;;;;;;;;;;4937491;28;137546;-63
2022/06/29 15:04:27;;;;;;;;;;;;;;;;;;4942491;28;109631;-63
2022/06/29 15:06:54;;;;;;;;;;;;;;;;;;4945336;28;123722;-63
2022/06/29 15:09:20;;;;;;;;;;;;;;;;;;4944750;28;138034;-63
2022/06/29 15:11:48;;;;;;;;;;;;;;;;;;4938122;28;119390;-63
2022/06/29 15:14:15;;;;;;;;;;;;;;;;;;4947976;28;139012;-63
2022/06/29 15:16:43;;;;;;;;;;;;;;;;;;4948122;28;139749;-63
2022/06/29 15:19:09;;;;;;;;;;;;;;;;;;4944502;28;118819;-62
2022/06/29 15:21:36;;;;;;;;;;;;;;;;;;4949161;28;109055;-63
2022/06/29 15:24:02;;;;;;;;;;;;;;;;;;4948648;28;137982;-62
2022/06/29 15:26:33;;;;;;;;;;;;;;;;;;4950713;28;118463;-63
2022/06/29 15:29:00;;;;;;;;;;;;;;;;;;4947515;28;138641;-63
2022/06/29 15:31:26;;;;;;;;;;;;;;;;;;4947949;28;121764;-63
2022/06/29 15:39:23;;;;;;;;;;;;;;;;;;4948756;28;124485;-62
2022/06/29 15:41:49;;;;;;;;;;;;;;;;;;4946287;28;131220;-63
2022/06/29 15:44:15;;;;;;;;;;;;;;;;;;4946972;28;126200;-63
2022/06/29 15:46:41;;;;;;;;;;;;;;;;;;4940010;28;126588;-63
2022/06/29 15:49:08;;;;;;;;;;;;;;;;;;4928401;28;125733;-63
2022/06/29 15:51:34;;;;;;;;;;;;;;;;;;4947543;28;121272;-63
2022/06/29 15:56:45;;;;;;;;;;;;;;;;;;4943447;28;132666;-63
2022/06/29 15:59:12;;;;;;;;;;;;;;;;;;4941227;28;117960;-64
2022/06/29 16:01:39;;;;;;;;;;;;;;;;;;4946590;28;132848;-63
2022/06/29 16:04:06;;;;;;;;;;;;;;;;;;4946937;28;135392;-63
2022/06/29 16:06:32;;;;;;;;;;;;;;;;;;4946713;28;114976;-63
2022/06/29 16:08:59;;;;;;;;;;;;;;;;;;4948492;28;130134;-63
2022/06/29 16:12:06;;;;;;;;;;;;;;;;;;4950895;28;130742;-63
2022/06/29 16:14:11;;;;;;;;;;;;;;;;;;4943565;28;114069;-62
2022/06/29 16:16:37;;;;;;;;;;;;;;;;;;4946519;28;111411;-62
2022/06/29 16:19:04;;;;;;;;;;;;;;;;;;4943759;28;122502;-63
2022/06/29 16:21:50;;;;;;;;;;;;;;;;;;4935938;28;109773;-62
2022/06/29 16:24:17;;;;;;;;;;;;;;;;;;4940597;28;139058;-63
2022/06/29 16:26:43;;;;;;;;;;;;;;;;;;4944926;28;111690;-62
2022/06/29 16:29:10;;;;;;;;;;;;;;;;;;4945790;28;127694;-62
2022/06/29 16:31:36;;;;;;;;;;;;;;;;;;4942428;28;126866;-65
2022/06/29 16:34:03;;;;;;;;;;;;;;;;;;4952498;28;107943;-63
2022/06/29 16:36:30;;;;;;;;;;;;;;;;;;4947674;28;138337;-61
2022/06/29 16:38:56;;;;;;;;;;;;;;;;;;4936407;28;122535;-63
2022/06/29 16:41:26;;;;;;;;;;;;;;;;;;4945751;28;136113;-63
2022/06/29 16:43:53;;;;;;;;;;;;;;;;;;4939357;28;138133;-62
2022/06/29 16:46:19;;;;;;;;;;;;;;;;;;4948499;28;123809;-62
2022/06/29 16:48:45;;;;;;;;;;;;;;;;;;4946368;28;136513;-63
2022/06/29 16:51:13;;;;;;;;;;;;;;;;;;4947701;28;138105;-63
2022/06/29 16:53:39;;;;;;;;;;;;;;;;;;4946376;28;125272;-63
2022/06/29 16:56:05;;;;;;;;;;;;;;;;;;4949381;28;137019;-64